createdAt,value
2022-10-17T00:01:10.060Z,57.34
2022-10-17T00:03:39.883Z,56.86
2022-10-17T00:06:09.587Z,56.74
2022-10-17T00:08:40.895Z,58.63
2022-10-17T00:11:14.181Z,59.26
2022-10-17T00:13:42.553Z,58.42
2022-10-17T00:16:10.966Z,57.95
2022-10-17T00:18:39.233Z,57.37
2022-10-17T00:21:07.900Z,57.50
2022-10-17T00:23:36.093Z,57.47
2022-10-17T00:26:07.451Z,56.86
2022-10-17T00:28:35.901Z,57.56
2022-10-17T00:31:07.115Z,57.94
2022-10-17T00:33:36.676Z,57.70
2022-10-17T00:36:07.526Z,59.00
2022-10-17T00:38:36.249Z,58.11
2022-10-17T00:41:06.684Z,60.55
2022-10-17T00:44:00.308Z,60.02
2022-10-17T00:46:30.092Z,58.90
2022-10-17T00:49:01.788Z,58.86
2022-10-17T00:51:36.029Z,58.85
2022-10-17T00:54:05.003Z,58.13
2022-10-17T00:56:35.244Z,58.47
2022-10-17T00:59:03.922Z,59.17
2022-10-17T01:01:32.342Z,58.89
2022-10-17T01:04:00.667Z,58.84
2022-10-17T01:06:28.947Z,59.26
2022-10-17T01:08:57.664Z,59.63
2022-10-17T01:11:39.188Z,59.59
2022-10-17T01:14:13.632Z,59.29
2022-10-17T01:16:49.173Z,59.44
2022-10-17T01:19:40.640Z,59.95
2022-10-17T01:22:13.651Z,59.14
2022-10-17T01:24:50.371Z,58.75
2022-10-17T01:27:49.193Z,59.89
2022-10-17T01:30:47.094Z,59.60
2022-10-17T01:33:22.861Z,60.21
2022-10-17T01:36:01.695Z,61.13
2022-10-17T01:38:38.115Z,63.45
2022-10-17T01:41:11.879Z,64.46
2022-10-17T01:43:45.479Z,63.85
2022-10-17T01:46:21.972Z,63.03
2022-10-17T01:48:50.403Z,63.76
2022-10-17T01:51:22.725Z,63.03
2022-10-17T01:53:56.134Z,62.06
2022-10-17T01:56:28.700Z,62.37
2022-10-17T01:59:02.200Z,63.12
2022-10-17T02:01:32.975Z,62.70
2022-10-17T02:04:03.903Z,62.66
2022-10-17T02:06:36.249Z,62.81
2022-10-17T02:09:18.433Z,62.32
2022-10-17T02:11:56.573Z,63.19
2022-10-17T02:14:34.700Z,62.52
2022-10-17T02:17:15.382Z,63.33
2022-10-17T02:19:56.350Z,63.12
2022-10-17T02:22:38.681Z,63.55
2022-10-17T02:25:15.933Z,63.33
2022-10-17T02:27:51.681Z,63.41
2022-10-17T02:30:29.832Z,64.63
2022-10-17T02:33:08.031Z,66.27
2022-10-17T02:35:40.794Z,66.08
2022-10-17T02:38:12.483Z,65.73
2022-10-17T02:40:42.228Z,65.29
2022-10-17T02:43:10.681Z,64.85
2022-10-17T02:45:40.111Z,66.94
2022-10-17T02:48:15.118Z,65.27
2022-10-17T02:50:53.685Z,64.90
2022-10-17T02:53:29.956Z,66.11
2022-10-17T02:56:01.565Z,66.13
2022-10-17T02:58:34.395Z,67.43
2022-10-17T03:01:03.098Z,67.89
2022-10-17T03:03:34.635Z,69.33
2022-10-17T03:06:03.094Z,69.02
2022-10-17T03:08:31.386Z,69.18
2022-10-17T03:10:59.693Z,69.65
2022-10-17T03:13:28.049Z,70.01
2022-10-17T03:15:57.767Z,71.59
2022-10-17T03:18:26.354Z,73.34
2022-10-17T03:20:55.952Z,73.32
2022-10-17T03:23:24.155Z,73.97
2022-10-17T03:25:52.442Z,75.51
2022-10-17T03:28:20.810Z,76.50
2022-10-17T03:30:49.254Z,74.56
2022-10-17T03:33:17.577Z,73.78
2022-10-17T03:35:45.944Z,74.48
2022-10-17T03:38:15.677Z,75.00
2022-10-17T03:40:44.248Z,77.34
2022-10-17T03:43:12.790Z,75.98
2022-10-17T03:45:41.012Z,75.66
2022-10-17T03:48:09.312Z,75.90
2022-10-17T03:50:37.568Z,76.89
2022-10-17T03:53:05.858Z,78.05
2022-10-17T03:55:35.841Z,78.78
2022-10-17T03:58:04.047Z,79.19
2022-10-17T04:00:32.290Z,78.01
2022-10-17T04:03:00.729Z,76.80
2022-10-17T04:05:29.079Z,77.19
2022-10-17T04:07:59.797Z,78.59
2022-10-17T04:10:31.175Z,81.85
2022-10-17T04:13:00.875Z,81.02
2022-10-17T04:15:29.190Z,81.96
2022-10-17T04:17:57.535Z,81.79
2022-10-17T04:20:25.833Z,81.96
2022-10-17T04:22:54.081Z,81.33
2022-10-17T04:25:22.443Z,79.94
2022-10-17T04:27:50.659Z,80.50
2022-10-17T04:30:20.351Z,79.30
2022-10-17T04:32:48.703Z,77.70
2022-10-17T04:35:17.024Z,77.27
2022-10-17T04:37:45.361Z,77.04
2022-10-17T04:40:13.986Z,77.16
2022-10-17T04:42:42.283Z,80.40
2022-10-17T04:45:11.334Z,87.25
2022-10-17T04:47:41.089Z,88.05
2022-10-17T04:50:10.206Z,86.61
2022-10-17T04:52:38.661Z,89.58
2022-10-17T04:55:07.985Z,92.52
2022-10-17T04:57:36.799Z,92.29
2022-10-17T05:00:05.896Z,91.94
2022-10-17T05:02:34.208Z,85.91
2022-10-17T05:05:03.922Z,79.80
2022-10-17T05:07:32.243Z,77.51
2022-10-17T05:10:00.508Z,79.26
2022-10-17T05:12:29.045Z,83.54
2022-10-17T05:14:57.577Z,85.45
2022-10-17T05:17:25.921Z,81.76
2022-10-17T05:19:54.187Z,80.52
2022-10-17T05:22:23.901Z,79.84
2022-10-17T05:24:52.217Z,82.30
2022-10-17T05:27:20.491Z,80.25
2022-10-17T05:29:48.718Z,78.06
2022-10-17T05:32:17.300Z,77.30
2022-10-17T05:34:45.563Z,75.68
2022-10-17T05:37:13.865Z,75.09
2022-10-17T05:39:45.854Z,74.59
2022-10-17T05:42:16.247Z,73.45
2022-10-17T05:44:44.490Z,72.49
2022-10-17T05:47:12.813Z,71.79
2022-10-17T05:49:46.434Z,69.02
2022-10-17T05:52:19.613Z,70.05
2022-10-17T05:54:49.339Z,67.55
2022-10-17T05:57:17.885Z,65.23
2022-10-17T05:59:46.113Z,63.99
2022-10-17T06:02:14.811Z,63.86
2022-10-17T06:04:46.071Z,63.93
2022-10-17T06:07:14.505Z,62.56
2022-10-17T06:09:43.050Z,63.25
2022-10-17T06:12:12.760Z,62.13
2022-10-17T06:14:41.034Z,61.09
2022-10-17T06:17:14.867Z,60.51
2022-10-17T06:19:45.015Z,59.82
2022-10-17T06:22:13.687Z,58.61
2022-10-17T06:24:42.456Z,57.97
2022-10-17T06:27:12.365Z,57.08
2022-10-17T06:29:40.750Z,55.74
2022-10-17T06:32:12.566Z,55.31
2022-10-17T06:34:43.284Z,55.18
2022-10-17T06:37:11.559Z,56.06
2022-10-17T06:39:39.872Z,58.95
2022-10-17T06:42:08.092Z,57.61
2022-10-17T06:44:37.832Z,55.30
2022-10-17T06:47:08.241Z,53.25
2022-10-17T06:49:36.514Z,52.50
2022-10-17T06:52:04.793Z,53.59
2022-10-17T06:54:33.491Z,52.23
2022-10-17T06:57:01.761Z,52.15
2022-10-17T06:59:30.044Z,51.08
2022-10-17T07:01:59.757Z,51.37
2022-10-17T07:04:28.229Z,52.50
2022-10-17T07:06:56.507Z,52.65
2022-10-17T07:09:25.257Z,51.88
2022-10-17T07:11:53.456Z,51.22
2022-10-17T07:14:21.733Z,50.47
2022-10-17T07:16:50.358Z,49.45
2022-10-17T07:19:20.161Z,48.32
2022-10-17T07:21:49.160Z,47.38
2022-10-17T07:24:17.725Z,47.79
2022-10-17T07:26:46.090Z,51.10
2022-10-17T07:29:14.469Z,49.05
2022-10-17T07:31:42.803Z,46.49
2022-10-17T07:34:11.109Z,46.60
2022-10-17T07:36:40.762Z,46.09
2022-10-17T07:39:09.040Z,48.31
2022-10-17T07:41:38.131Z,47.51
2022-10-17T07:44:07.599Z,47.55
2022-10-17T07:46:36.694Z,46.03
2022-10-17T07:49:04.888Z,46.49
2022-10-17T07:51:33.746Z,45.34
2022-10-17T07:54:03.492Z,45.26
2022-10-17T07:56:31.803Z,44.38
2022-10-17T07:59:02.584Z,43.95
2022-10-17T08:01:33.458Z,42.63
2022-10-17T08:04:02.377Z,41.62
2022-10-17T08:06:30.645Z,42.34
2022-10-17T08:08:59.723Z,42.49
2022-10-17T08:11:29.489Z,40.95
2022-10-17T08:13:57.940Z,40.84
2022-10-17T08:16:26.163Z,40.84
2022-10-17T08:18:54.402Z,38.97
2022-10-17T08:21:22.786Z,37.26
2022-10-17T08:23:51.099Z,37.65
2022-10-17T08:26:20.627Z,36.53
2022-10-17T08:28:50.643Z,37.20
2022-10-17T08:31:20.826Z,36.24
2022-10-17T08:33:50.244Z,36.13
2022-10-17T08:36:20.571Z,36.20
2022-10-17T08:41:42.684Z,36.07
2022-10-17T08:44:21.892Z,34.31
2022-10-17T08:46:53.548Z,35.41
2022-10-17T08:49:42.241Z,35.21
2022-10-17T08:52:20.236Z,32.83
2022-10-17T08:54:49.886Z,31.80
2022-10-17T08:57:19.542Z,31.44
2022-10-17T08:59:52.672Z,31.57
2022-10-17T09:02:39.008Z,31.74
2022-10-17T09:05:32.177Z,32.76
2022-10-17T09:08:08.620Z,31.77
2022-10-17T09:10:48.044Z,30.77
2022-10-17T09:13:28.408Z,30.49
2022-10-17T09:16:11.131Z,31.07
2022-10-17T09:18:42.963Z,31.09
2022-10-17T09:21:33.516Z,31.59
2022-10-17T09:24:09.523Z,31.08
2022-10-17T09:26:45.797Z,29.85
2022-10-17T09:29:20.216Z,28.93
2022-10-17T09:31:58.716Z,28.94
2022-10-17T09:34:30.374Z,28.94
2022-10-17T09:37:01.044Z,28.94
2022-10-17T09:39:33.144Z,28.60
2022-10-17T09:42:03.045Z,29.16
2022-10-17T09:44:33.038Z,29.25
2022-10-17T09:47:20.428Z,28.68
2022-10-17T09:49:50.368Z,28.47
2022-10-17T09:52:23.035Z,28.65
2022-10-17T09:54:53.875Z,28.23
2022-10-17T09:57:23.327Z,28.54
2022-10-17T10:00:00.025Z,28.26
2022-10-17T10:02:32.803Z,27.31
2022-10-17T10:05:06.045Z,27.97
2022-10-17T10:07:37.902Z,28.36
2022-10-17T10:10:09.685Z,26.97
2022-10-17T10:12:40.357Z,26.08
2022-10-17T10:15:35.035Z,25.14
2022-10-17T10:18:24.553Z,23.79
2022-10-17T10:21:09.212Z,22.26
2022-10-17T10:23:40.688Z,23.20
2022-10-17T10:26:27.207Z,21.61
2022-10-17T10:29:02.266Z,22.04
2022-10-17T10:34:26.453Z,20.73
2022-10-17T10:37:02.445Z,21.03
2022-10-17T10:39:44.630Z,20.85
2022-10-17T10:42:29.569Z,21.24
2022-10-17T10:45:03.378Z,20.49
2022-10-17T10:47:32.978Z,20.29
2022-10-17T10:50:23.748Z,20.51
2022-10-17T10:52:56.654Z,21.40
2022-10-17T10:55:29.712Z,20.27
2022-10-17T10:58:02.509Z,19.11
2022-10-17T11:00:36.247Z,19.10
2022-10-17T11:03:13.059Z,18.64
2022-10-17T11:05:47.634Z,19.17
2022-10-17T11:08:24.954Z,19.11
2022-10-17T11:11:06.870Z,19.69
2022-10-17T11:13:42.220Z,18.88
2022-10-17T11:16:29.907Z,18.40
2022-10-17T11:19:04.393Z,18.33
2022-10-17T11:21:42.995Z,18.87
2022-10-17T11:24:18.012Z,18.44
2022-10-17T11:26:51.875Z,19.11
2022-10-17T11:29:20.236Z,18.82
2022-10-17T11:31:52.929Z,17.17
2022-10-17T11:34:27.213Z,17.13
2022-10-17T11:37:05.783Z,16.78
2022-10-17T11:39:42.568Z,18.29
2022-10-17T11:42:14.098Z,18.12
2022-10-17T11:44:44.780Z,18.51
2022-10-17T11:47:24.518Z,18.22
2022-10-17T11:51:59.373Z,17.39
2022-10-17T11:52:56.331Z,17.15
2022-10-17T11:55:27.260Z,18.23
2022-10-17T11:58:12.395Z,18.06
2022-10-17T12:00:54.109Z,18.43
2022-10-17T12:03:35.176Z,18.55
2022-10-17T12:06:11.501Z,17.43
2022-10-17T12:08:46.383Z,18.39
2022-10-17T12:11:29.644Z,19.32
2022-10-17T12:13:58.569Z,19.28
2022-10-17T12:16:51.659Z,17.59
2022-10-17T12:19:34.707Z,19.00
2022-10-17T12:22:20.232Z,18.08
2022-10-17T12:24:58.349Z,17.73
2022-10-17T12:27:46.178Z,17.61
2022-10-17T12:30:26.267Z,17.58
2022-10-17T12:33:07.969Z,17.89
2022-10-17T12:35:38.079Z,18.33
2022-10-17T12:38:30.012Z,18.96
2022-10-17T12:41:08.602Z,18.39
2022-10-17T12:43:52.704Z,19.20
2022-10-17T12:46:49.632Z,19.98
2022-10-17T12:49:43.129Z,19.12
2022-10-17T12:52:49.581Z,17.81
2022-10-17T12:55:19.482Z,18.44
2022-10-17T12:57:58.885Z,17.63
2022-10-17T13:00:33.374Z,19.09
2022-10-17T13:03:08.024Z,18.03
2022-10-17T13:05:38.872Z,18.72
2022-10-17T13:08:09.293Z,18.56
2022-10-17T13:10:43.239Z,18.11
2022-10-17T13:13:19.503Z,18.48
2022-10-17T13:15:49.131Z,19.41
2022-10-17T13:18:23.965Z,18.36
2022-10-17T13:21:03.295Z,17.61
2022-10-17T13:23:33.959Z,18.54
2022-10-17T13:26:15.163Z,18.06
2022-10-17T13:28:45.339Z,18.90
2022-10-17T13:31:30.418Z,18.83
2022-10-17T13:34:00.090Z,19.02
2022-10-17T13:36:30.246Z,18.48
2022-10-17T13:39:03.193Z,18.98
2022-10-17T13:41:36.852Z,18.93
2022-10-17T13:44:15.830Z,19.46
2022-10-17T13:46:45.281Z,18.80
2022-10-17T13:49:25.796Z,19.93
2022-10-17T13:51:57.358Z,20.58
2022-10-17T13:54:37.743Z,20.81
2022-10-17T13:57:07.342Z,21.43
2022-10-17T13:59:40.829Z,21.78
2022-10-17T14:02:15.877Z,20.47
2022-10-17T14:05:15.139Z,21.61
2022-10-17T14:08:05.722Z,20.17
2022-10-17T14:10:28.973Z,20.09
2022-10-17T14:12:58.003Z,19.44
2022-10-17T14:15:29.551Z,20.87
2022-10-17T14:18:05.396Z,19.72
2022-10-17T14:23:33.357Z,20.66
2022-10-17T14:26:17.112Z,20.41
2022-10-17T14:28:47.368Z,20.15
2022-10-17T14:31:32.950Z,20.28
2022-10-17T14:34:02.906Z,21.48
2022-10-17T14:36:40.308Z,19.30
2022-10-17T14:39:19.652Z,20.70
2022-10-17T14:41:48.915Z,23.19
2022-10-17T14:44:32.300Z,24.48
2022-10-17T14:47:30.381Z,26.08
2022-10-17T14:50:03.327Z,26.28
2022-10-17T14:52:33.278Z,27.31
2022-10-17T14:55:16.699Z,30.85
2022-10-17T14:57:46.829Z,28.36
2022-10-17T15:00:16.738Z,27.96
2022-10-17T15:02:48.106Z,30.59
2022-10-17T15:05:16.927Z,29.45
2022-10-17T15:07:45.297Z,29.19
2022-10-17T15:10:32.013Z,29.59
2022-10-17T15:13:27.569Z,29.78
2022-10-17T15:15:52.303Z,29.65
2022-10-17T15:18:22.185Z,30.09
2022-10-17T15:20:56.292Z,30.64
2022-10-17T15:23:33.341Z,30.80
2022-10-17T15:26:02.108Z,31.12
2022-10-17T15:28:30.395Z,29.45
2022-10-17T15:30:58.670Z,30.44
2022-10-17T15:33:28.329Z,31.66
2022-10-17T15:38:29.962Z,31.41
2022-10-17T15:40:58.217Z,30.84
2022-10-17T15:43:26.533Z,30.93
2022-10-17T15:45:55.070Z,30.67
2022-10-17T15:48:31.008Z,30.54
2022-10-17T15:50:59.508Z,30.40
2022-10-17T15:53:27.865Z,30.55
2022-10-17T15:55:56.330Z,30.59
2022-10-17T15:58:24.537Z,34.30
2022-10-17T16:00:52.905Z,30.71
2022-10-17T16:05:51.800Z,29.77
2022-10-17T16:08:20.036Z,29.55
2022-10-17T16:10:48.334Z,29.01
2022-10-17T16:13:19.411Z,29.52
2022-10-17T16:15:47.973Z,30.35
2022-10-17T16:18:16.293Z,30.31
2022-10-17T16:20:44.561Z,32.41
2022-10-17T16:23:15.709Z,40.17
2022-10-17T16:25:44.038Z,30.41
2022-10-17T16:28:12.268Z,29.83
2022-10-17T16:30:46.352Z,30.45
2022-10-17T16:33:14.824Z,34.33
2022-10-17T16:35:43.252Z,31.06
2022-10-17T16:38:11.513Z,30.06
2022-10-17T16:40:41.298Z,30.59
2022-10-17T16:43:12.147Z,38.60
2022-10-17T16:45:40.789Z,33.62
2022-10-17T16:48:10.659Z,29.84
2022-10-17T16:50:41.286Z,30.07
2022-10-17T16:53:09.600Z,30.59
2022-10-17T16:55:37.891Z,30.94
2022-10-17T16:58:07.594Z,31.62
2022-10-17T17:00:35.977Z,32.05
2022-10-17T17:03:04.235Z,31.95
2022-10-17T17:05:32.488Z,31.33
2022-10-17T17:08:01.119Z,33.48
2022-10-17T17:10:29.371Z,33.01
2022-10-17T17:12:57.603Z,32.71
2022-10-17T17:15:27.289Z,31.96
2022-10-17T17:17:56.153Z,32.14
2022-10-17T17:20:24.873Z,32.82
2022-10-17T17:22:54.198Z,34.43
2022-10-17T17:25:23.529Z,33.93
2022-10-17T17:27:51.849Z,34.82
2022-10-17T17:30:20.198Z,35.21
2022-10-17T17:32:49.850Z,34.46
2022-10-17T17:35:18.606Z,34.67
2022-10-17T17:37:46.907Z,34.43
2022-10-17T17:40:15.538Z,35.78
2022-10-17T17:42:44.172Z,34.80
2022-10-17T17:45:13.244Z,35.98
2022-10-17T17:47:41.693Z,35.48
2022-10-17T17:50:11.683Z,35.20
2022-10-17T17:52:42.502Z,35.01
2022-10-17T17:55:11.212Z,36.14
2022-10-17T17:57:39.674Z,36.15
2022-10-17T18:00:09.369Z,37.81
2022-10-17T18:02:40.761Z,37.79
2022-10-17T18:05:16.426Z,37.64
2022-10-17T18:07:44.779Z,36.57
2022-10-17T18:12:44.016Z,37.62
2022-10-17T18:15:12.644Z,39.94
2022-10-17T18:17:41.409Z,45.94
2022-10-17T18:20:10.394Z,44.08
2022-10-17T18:22:40.158Z,38.68
2022-10-17T18:25:09.470Z,49.86
2022-10-17T18:27:37.811Z,46.32
2022-10-17T18:30:11.240Z,39.97
2022-10-17T18:32:40.805Z,39.54
2022-10-17T18:35:09.595Z,39.57
2022-10-17T18:40:09.237Z,43.57
2022-10-17T18:42:38.562Z,41.31
2022-10-17T18:45:08.013Z,40.20
2022-10-17T18:47:36.388Z,40.70
2022-10-17T18:50:05.031Z,39.28
2022-10-17T18:52:33.325Z,40.13
2022-10-17T18:55:03.384Z,40.28
2022-10-17T18:57:33.045Z,41.41
2022-10-17T19:00:01.549Z,47.86
2022-10-17T19:02:33.169Z,41.59
2022-10-17T19:05:04.120Z,43.32
2022-10-17T19:07:32.628Z,47.43
2022-10-17T19:10:02.469Z,44.74
2022-10-17T19:12:30.837Z,41.55
2022-10-17T19:14:59.045Z,45.19
2022-10-17T19:17:27.493Z,43.08
2022-10-17T19:19:56.084Z,43.00
2022-10-17T19:22:24.418Z,41.49
2022-10-17T19:24:52.797Z,42.78
2022-10-17T19:27:22.481Z,44.20
2022-10-17T19:29:50.773Z,41.94
2022-10-17T19:32:20.745Z,41.03
2022-10-17T19:34:51.160Z,42.03
2022-10-17T19:37:19.467Z,44.67
2022-10-17T19:39:49.443Z,43.33
2022-10-17T19:42:17.706Z,44.00
2022-10-17T19:44:47.376Z,45.80
2022-10-17T19:47:15.712Z,43.31
2022-10-17T19:49:49.029Z,42.93
2022-10-17T19:52:18.267Z,45.60
2022-10-17T19:54:46.544Z,48.10
2022-10-17T19:57:14.888Z,42.48
2022-10-17T19:59:43.256Z,44.97
2022-10-17T20:02:14.514Z,43.14
2022-10-17T20:04:54.330Z,43.20
2022-10-17T20:07:28.365Z,45.72
2022-10-17T20:09:56.566Z,42.19
2022-10-17T20:12:24.819Z,42.29
2022-10-17T20:14:53.059Z,42.96
2022-10-17T20:17:22.765Z,42.84
2022-10-17T20:19:51.620Z,44.61
2022-10-17T20:22:19.929Z,45.68
2022-10-17T20:24:48.233Z,45.61
2022-10-17T20:27:16.842Z,46.04
2022-10-17T20:29:45.439Z,44.13
2022-10-17T20:32:13.793Z,46.44
2022-10-17T20:34:43.690Z,45.42
2022-10-17T20:37:12.398Z,44.81
2022-10-17T20:39:40.605Z,44.69
2022-10-17T20:42:09.068Z,44.15
2022-10-17T20:44:37.403Z,44.48
2022-10-17T20:47:11.934Z,45.16
2022-10-17T20:49:46.383Z,45.75
2022-10-17T20:52:14.620Z,44.21
2022-10-17T20:54:42.939Z,43.91
2022-10-17T20:57:11.187Z,51.54
2022-10-17T20:59:39.463Z,46.69
2022-10-17T21:02:08.704Z,45.09
2022-10-17T21:04:52.505Z,47.78
2022-10-17T21:07:22.410Z,44.98
2022-10-17T21:09:50.715Z,45.28
2022-10-17T21:12:26.257Z,46.53
2022-10-17T21:15:00.100Z,45.81
2022-10-17T21:17:28.462Z,46.86
2022-10-17T21:19:57.102Z,47.99
2022-10-17T21:22:27.502Z,50.93
2022-10-17T21:24:55.806Z,46.76
2022-10-17T21:27:24.092Z,46.29
2022-10-17T21:29:52.410Z,45.99
2022-10-17T21:32:33.356Z,45.52
2022-10-17T21:35:09.384Z,46.47
2022-10-17T21:37:39.083Z,48.22
2022-10-17T21:40:08.501Z,46.14
2022-10-17T21:42:36.807Z,47.60
2022-10-17T21:45:10.746Z,46.77
2022-10-17T21:48:11.589Z,50.04
2022-10-17T21:50:36.737Z,45.86
2022-10-17T21:53:06.422Z,46.44
2022-10-17T21:55:37.257Z,47.38
2022-10-17T21:58:05.888Z,48.34
2022-10-17T22:00:34.140Z,47.25
2022-10-17T22:03:02.529Z,48.16
2022-10-17T22:05:32.381Z,47.79
2022-10-17T22:08:00.632Z,48.80
2022-10-17T22:10:30.318Z,48.65
2022-10-17T22:12:58.564Z,47.76
2022-10-17T22:15:26.850Z,47.72
2022-10-17T22:17:55.124Z,48.75
2022-10-17T22:20:23.425Z,48.16
2022-10-17T22:22:51.725Z,50.45
2022-10-17T22:25:20.044Z,49.21
2022-10-17T22:27:49.934Z,48.65
2022-10-17T22:30:18.864Z,47.92
2022-10-17T22:32:47.082Z,47.31
2022-10-17T22:35:15.507Z,49.20
2022-10-17T22:37:43.830Z,53.01
2022-10-17T22:40:12.897Z,53.35
2022-10-17T22:42:41.232Z,51.60
2022-10-17T22:45:11.706Z,50.88
2022-10-17T22:47:40.006Z,50.36
2022-10-17T22:50:08.651Z,50.45
2022-10-17T22:52:36.896Z,52.47
2022-10-17T22:55:05.699Z,52.80
2022-10-17T22:57:34.033Z,51.82
2022-10-17T23:00:02.302Z,50.71
2022-10-17T23:02:32.675Z,51.30
2022-10-17T23:05:01.184Z,50.67
2022-10-17T23:07:29.838Z,51.22
2022-10-17T23:09:58.244Z,52.41
2022-10-17T23:12:26.559Z,52.58
2022-10-17T23:14:55.250Z,52.75
2022-10-17T23:17:23.556Z,51.61
2022-10-17T23:19:57.034Z,52.38
2022-10-17T23:22:26.087Z,51.16
2022-10-17T23:24:54.309Z,50.84
2022-10-17T23:27:22.529Z,51.42
2022-10-17T23:29:55.221Z,52.12
2022-10-17T23:32:23.577Z,55.31
2022-10-17T23:34:53.233Z,52.39
2022-10-17T23:37:21.602Z,52.56
2022-10-17T23:39:49.876Z,52.68
2022-10-17T23:42:18.185Z,52.63
2022-10-17T23:44:46.454Z,53.54
2022-10-17T23:47:14.790Z,51.97
2022-10-17T23:49:43.064Z,54.70
2022-10-17T23:52:12.691Z,55.52
2022-10-17T23:57:10.259Z,55.80
2022-10-17T23:59:38.540Z,63.59
